Time;durP1;ratioP1;P1;durP2;ratioP2;P2;SDS_P1;SDS_P2;PMS_P1;PMS_P2;Temp;Humidity;BMP_temperature;BMP_pressure;BME280_temperature;BME280_humidity;BME280_pressure;Samples;Min_cycle;Max_cycle;Signal;HPM_P1;HPM_P2
2024/03/11 00:02:00;;;;;;;;;;;;;;;5.21;100.00;94846.69;5064929;28;19936;-68
2024/03/11 00:04:26;;;;;;;;;;;;;;;5.16;100.00;94855.13;5064908;28;19948;-66
2024/03/11 00:06:52;;;;;;;;;;;;;;;5.15;100.00;94843.19;5063564;28;19981;-66
2024/03/11 00:09:28;;;;;;;;;;;;;;;5.15;100.00;94856.16;5065527;28;19955;-67
2024/03/11 00:11:59;;;;;;;;;;;;;;;5.14;100.00;94864.19;5065044;28;20237;-67
2024/03/11 00:14:28;;;;;;;;;;;;;;;5.11;100.00;94860.22;5065540;28;19934;-67
2024/03/11 00:16:55;;;;;;;;;;;;;;;5.09;100.00;94862.25;5064567;28;19952;-72
2024/03/11 00:19:21;;;;;;;;;;;;;;;5.11;100.00;94872.44;5064612;28;19948;-66
2024/03/11 00:21:51;;;;;;;;;;;;;;;5.12;100.00;94874.00;5063687;28;19939;-65
2024/03/11 00:24:18;;;;;;;;;;;;;;;5.11;100.00;94875.03;5065029;28;19959;-66
2024/03/11 00:26:45;;;;;;;;;;;;;;;5.08;100.00;94881.44;5065220;28;20112;-66
2024/03/11 00:29:10;;;;;;;;;;;;;;;5.07;100.00;94879.88;5064417;28;19959;-66
2024/03/11 00:31:37;;;;;;;;;;;;;;;5.07;100.00;94882.47;5064357;28;20223;-66
2024/03/11 00:34:03;;;;;;;;;;;;;;;5.05;100.00;94885.28;5064175;28;19961;-66
2024/03/11 00:36:30;;;;;;;;;;;;;;;5.04;100.00;94885.50;5064199;28;19952;-71
2024/03/11 00:38:57;;;;;;;;;;;;;;;5.03;100.00;94889.13;5064247;28;19938;-66
2024/03/11 00:41:25;;;;;;;;;;;;;;;5.05;100.00;94887.88;5064243;28;19939;-66
2024/03/11 00:43:51;;;;;;;;;;;;;;;5.07;100.00;94890.25;5064688;28;19940;-66
2024/03/11 00:46:18;;;;;;;;;;;;;;;5.09;100.00;94896.03;5064132;28;19934;-66
2024/03/11 00:48:44;;;;;;;;;;;;;;;5.06;100.00;94892.06;5064870;28;19936;-66
2024/03/11 00:51:10;;;;;;;;;;;;;;;5.07;100.00;94909.22;5064073;28;19941;-66
2024/03/11 00:53:36;;;;;;;;;;;;;;;5.03;100.00;94902.88;5064030;28;20028;-66
2024/03/11 00:56:02;;;;;;;;;;;;;;;5.02;100.00;94909.13;5064031;28;19960;-66
2024/03/11 00:58:28;;;;;;;;;;;;;;;5.01;100.00;94896.34;5063863;28;19991;-66
2024/03/11 01:00:55;;;;;;;;;;;;;;;5.03;100.00;94899.50;5065083;28;19938;-66
2024/03/11 01:03:22;;;;;;;;;;;;;;;5.06;100.00;94901.66;5064466;28;19934;-66
2024/03/11 01:05:49;;;;;;;;;;;;;;;5.03;100.00;94910.69;5063895;28;19997;-66
2024/03/11 01:08:16;;;;;;;;;;;;;;;5.01;100.00;94907.50;5063842;28;19952;-66
2024/03/11 01:10:42;;;;;;;;;;;;;;;5.01;100.00;94912.72;5063820;28;20125;-66
2024/03/11 01:13:08;;;;;;;;;;;;;;;5.01;100.00;94914.53;5063857;28;20130;-74
2024/03/11 01:15:34;;;;;;;;;;;;;;;5.01;100.00;94917.13;5063809;28;20019;-72
2024/03/11 01:18:00;;;;;;;;;;;;;;;5.02;100.00;94924.69;5063752;28;20099;-72
2024/03/11 01:20:26;;;;;;;;;;;;;;;5.03;100.00;94926.28;5063773;28;19936;-72
2024/03/11 01:22:52;;;;;;;;;;;;;;;5.04;100.00;94927.06;5063743;28;19936;-73
2024/03/11 01:25:20;;;;;;;;;;;;;;;5.04;100.00;94929.66;5063711;28;19944;-73
2024/03/11 01:27:46;;;;;;;;;;;;;;;5.06;100.00;94948.41;5063655;28;19955;-73
2024/03/11 01:30:14;;;;;;;;;;;;;;;5.01;100.00;94935.31;5064283;28;20229;-71
2024/03/11 01:32:44;;;;;;;;;;;;;;;4.96;100.00;94945.56;5065899;28;19943;-67
2024/03/11 01:35:11;;;;;;;;;;;;;;;4.89;100.00;94943.03;5067570;28;20261;-73
2024/03/11 01:37:37;;;;;;;;;;;;;;;4.86;100.00;94943.47;5068331;28;20278;-74
2024/03/11 01:40:03;;;;;;;;;;;;;;;4.84;100.00;94940.31;5068400;28;19936;-74
2024/03/11 01:42:29;;;;;;;;;;;;;;;4.82;100.00;94937.13;5067530;28;19935;-74
2024/03/11 01:44:54;;;;;;;;;;;;;;;4.84;100.00;94935.13;5067550;28;19935;-74
2024/03/11 01:47:24;;;;;;;;;;;;;;;4.83;100.00;94947.31;5067473;28;19933;-73
2024/03/11 01:49:52;;;;;;;;;;;;;;;4.82;100.00;94944.94;5067429;28;19933;-66
2024/03/11 01:52:22;;;;;;;;;;;;;;;4.79;100.00;94937.59;5067351;28;19944;-71
2024/03/11 01:54:48;;;;;;;;;;;;;;;4.72;100.00;94940.25;5067312;28;19939;-71
2024/03/11 01:57:15;;;;;;;;;;;;;;;4.64;100.00;94941.34;5067227;28;20117;-71
2024/03/11 01:59:42;;;;;;;;;;;;;;;4.60;100.00;94947.16;5067178;28;19936;-71
2024/03/11 02:02:08;;;;;;;;;;;;;;;4.56;100.00;94941.63;5067223;28;19939;-70
2024/03/11 02:04:34;;;;;;;;;;;;;;;4.58;100.00;94944.03;5067404;28;19936;-71
2024/03/11 02:07:01;;;;;;;;;;;;;;;4.58;100.00;94944.03;5066782;28;20104;-67
2024/03/11 02:09:28;;;;;;;;;;;;;;;4.59;100.00;94938.59;5067247;28;19956;-74
2024/03/11 02:11:53;;;;;;;;;;;;;;;4.61;100.00;94953.97;5065813;28;19946;-74
2024/03/11 02:14:19;;;;;;;;;;;;;;;4.61;100.00;94946.97;5066958;28;19936;-74
2024/03/11 02:16:47;;;;;;;;;;;;;;;4.59;100.00;94945.59;5067603;28;19939;-75
2024/03/11 02:19:15;;;;;;;;;;;;;;;4.59;100.00;94946.38;5067430;28;19935;-74
2024/03/11 02:21:41;;;;;;;;;;;;;;;4.57;100.00;94942.41;5066833;28;19936;-74
2024/03/11 02:24:08;;;;;;;;;;;;;;;4.55;100.00;94947.81;5065667;28;19931;-74
2024/03/11 02:26:34;;;;;;;;;;;;;;;4.53;100.00;94949.84;5066736;28;19931;-67
2024/03/11 02:29:00;;;;;;;;;;;;;;;4.52;100.00;94948.28;5066694;28;19999;-71
2024/03/11 02:31:28;;;;;;;;;;;;;;;4.49;100.00;94948.69;5066624;28;19935;-71
2024/03/11 02:33:54;;;;;;;;;;;;;;;4.46;100.00;94954.31;5066954;28;19965;-71
2024/03/11 02:36:22;;;;;;;;;;;;;;;4.42;100.00;94943.56;5066560;28;19938;-71
2024/03/11 02:38:48;;;;;;;;;;;;;;;4.41;100.00;94947.19;5067191;28;19959;-71
2024/03/11 02:41:13;;;;;;;;;;;;;;;4.37;100.00;94951.22;5066440;28;19936;-71
2024/03/11 02:43:39;;;;;;;;;;;;;;;4.34;100.00;94951.63;5065534;28;19933;-66
2024/03/11 02:46:06;;;;;;;;;;;;;;;4.31;100.00;94962.47;5067126;28;20116;-73
2024/03/11 02:48:31;;;;;;;;;;;;;;;4.30;100.00;94973.06;5066355;28;19940;-74
2024/03/11 02:50:57;;;;;;;;;;;;;;;4.25;100.00;94974.47;5066380;28;19937;-73
2024/03/11 02:53:23;;;;;;;;;;;;;;;4.20;100.00;94976.94;5066816;28;20117;-74
2024/03/11 02:55:50;;;;;;;;;;;;;;;4.17;100.00;94982.53;5066255;28;19939;-73
2024/03/11 02:58:15;;;;;;;;;;;;;;;4.13;100.00;94978.78;5066665;28;19953;-73
2024/03/11 03:00:41;;;;;;;;;;;;;;;4.10;100.00;94981.81;5066161;28;20107;-74
2024/03/11 03:03:07;;;;;;;;;;;;;;;4.05;100.00;94987.66;5066865;28;20007;-66
2024/03/11 03:05:33;;;;;;;;;;;;;;;4.02;100.00;94995.06;5065991;28;19999;-66
2024/03/11 03:07:59;;;;;;;;;;;;;;;3.98;100.00;94986.88;5065910;28;19982;-66
2024/03/11 03:10:24;;;;;;;;;;;;;;;3.95;100.00;94992.53;5066233;28;19937;-66
2024/03/11 03:12:50;;;;;;;;;;;;;;;3.91;100.00;94987.97;5065828;28;19940;-66
2024/03/11 03:15:17;;;;;;;;;;;;;;;3.89;100.00;94995.16;5066645;28;19942;-65
2024/03/11 03:17:43;;;;;;;;;;;;;;;3.82;100.00;94996.00;5065774;28;19949;-66
2024/03/11 03:20:10;;;;;;;;;;;;;;;3.78;100.00;94992.25;5065827;28;19935;-72
2024/03/11 03:22:35;;;;;;;;;;;;;;;3.75;100.00;95005.63;5065668;28;19928;-75
2024/03/11 03:25:03;;;;;;;;;;;;;;;3.72;100.00;95007.84;5065667;28;19941;-67
2024/03/11 03:27:29;;;;;;;;;;;;;;;3.69;100.00;95003.06;5065558;28;19936;-67
2024/03/11 03:29:55;;;;;;;;;;;;;;;3.64;100.00;95011.50;5065572;28;19936;-67
2024/03/11 03:32:22;;;;;;;;;;;;;;;3.60;100.00;95002.53;5065467;28;19938;-66
2024/03/11 03:34:49;;;;;;;;;;;;;;;3.57;100.00;95003.75;5065501;28;20163;-67
2024/03/11 03:37:15;;;;;;;;;;;;;;;3.55;100.00;95004.94;5065837;28;20081;-67
2024/03/11 03:39:41;;;;;;;;;;;;;;;3.52;100.00;95000.97;5066176;28;19936;-74
2024/03/11 03:42:07;;;;;;;;;;;;;;;3.50;100.00;95000.41;5065322;28;19946;-66
2024/03/11 03:44:33;;;;;;;;;;;;;;;3.48;100.00;94999.81;5065266;28;19936;-67
2024/03/11 03:46:58;;;;;;;;;;;;;;;3.47;100.00;95007.81;5065252;28;19931;-67
2024/03/11 03:49:24;;;;;;;;;;;;;;;3.43;100.00;95005.63;5064006;28;20253;-66
2024/03/11 03:51:50;;;;;;;;;;;;;;;3.42;100.00;95004.06;5065366;28;19997;-67
2024/03/11 03:54:17;;;;;;;;;;;;;;;3.39;100.00;95012.22;5065060;28;19937;-66
2024/03/11 03:56:45;;;;;;;;;;;;;;;3.39;100.00;95016.63;5064932;28;19930;-72
2024/03/11 03:59:11;;;;;;;;;;;;;;;3.37;100.00;95024.59;5065731;28;19949;-72
2024/03/11 04:01:36;;;;;;;;;;;;;;;3.36;100.00;95028.19;5064910;28;19942;-72
2024/03/11 04:04:03;;;;;;;;;;;;;;;3.35;100.00;95018.03;5064872;28;19953;-72
2024/03/11 04:06:32;;;;;;;;;;;;;;;3.34;100.00;95024.19;5064853;28;20125;-73
2024/03/11 04:08:58;;;;;;;;;;;;;;;3.33;100.00;95030.41;5064722;28;19951;-72
2024/03/11 04:11:24;;;;;;;;;;;;;;;3.31;100.00;95025.41;5064733;28;19940;-73
2024/03/11 04:13:49;;;;;;;;;;;;;;;3.29;100.00;95030.00;5064681;28;20125;-73
2024/03/11 04:16:16;;;;;;;;;;;;;;;3.28;100.00;95025.84;5064896;28;19942;-71
2024/03/11 04:18:42;;;;;;;;;;;;;;;3.24;100.00;95033.22;5064515;28;19957;-75
2024/03/11 04:21:08;;;;;;;;;;;;;;;3.21;100.00;95033.66;5064519;28;19932;-75
2024/03/11 04:23:34;;;;;;;;;;;;;;;3.20;100.00;95039.81;5064486;28;19932;-76
2024/03/11 04:26:01;;;;;;;;;;;;;;;3.18;100.00;95046.22;5064433;28;19968;-76
2024/03/11 04:28:29;;;;;;;;;;;;;;;3.16;100.00;95041.22;5064396;28;19929;-76
2024/03/11 04:30:55;;;;;;;;;;;;;;;3.16;100.00;95037.84;5064342;28;19956;-76
2024/03/11 04:33:21;;;;;;;;;;;;;;;3.15;100.00;95044.03;5064225;28;19939;-76
2024/03/11 04:35:51;;;;;;;;;;;;;;;3.14;100.00;95053.59;5064916;28;19943;-73
2024/03/11 04:38:17;;;;;;;;;;;;;;;3.13;100.00;95048.59;5064215;28;19950;-75
2024/03/11 04:40:43;;;;;;;;;;;;;;;3.12;100.00;95049.63;5064171;28;19935;-75
2024/03/11 04:43:10;;;;;;;;;;;;;;;3.11;100.00;95046.25;5064193;28;20248;-76
2024/03/11 04:45:40;;;;;;;;;;;;;;;3.08;100.00;95056.22;5063009;28;19933;-76
2024/03/11 04:48:06;;;;;;;;;;;;;;;3.04;100.00;95046.28;5064679;28;19954;-76
2024/03/11 04:50:33;;;;;;;;;;;;;;;3.03;100.00;95047.25;5064116;28;19933;-77
2024/03/11 04:53:03;;;;;;;;;;;;;;;3.03;100.00;95036.91;5064361;28;20117;-74
2024/03/11 04:55:29;;;;;;;;;;;;;;;3.02;100.00;95044.88;5064055;28;19933;-74
2024/03/11 04:57:55;;;;;;;;;;;;;;;2.99;100.00;95038.31;5063901;28;19947;-74
2024/03/11 05:00:26;;;;;;;;;;;;;;;2.97;100.00;95044.69;5063941;28;20228;-73
2024/03/11 05:02:56;;;;;;;;;;;;;;;2.95;100.00;95051.88;5064713;28;20102;-73
2024/03/11 05:05:21;;;;;;;;;;;;;;;2.92;100.00;95047.91;5064441;28;19970;-73
2024/03/11 05:07:49;;;;;;;;;;;;;;;2.89;100.00;95048.31;5063306;28;20004;-74
2024/03/11 05:10:15;;;;;;;;;;;;;;;2.89;100.00;95057.88;5064378;28;20126;-74
2024/03/11 05:12:41;;;;;;;;;;;;;;;2.86;100.00;95048.72;5063931;28;19988;-74
2024/03/11 05:15:09;;;;;;;;;;;;;;;2.84;100.00;95067.03;5064588;28;19943;-75
2024/03/11 05:17:35;;;;;;;;;;;;;;;2.80;100.00;95060.69;5063919;28;19936;-75
2024/03/11 05:20:06;;;;;;;;;;;;;;;2.80;100.00;95070.25;5063723;28;19939;-75
2024/03/11 05:22:32;;;;;;;;;;;;;;;2.77;100.00;95068.88;5063694;28;19932;-75
2024/03/11 05:24:58;;;;;;;;;;;;;;;2.75;100.00;95072.63;5063903;28;19933;-75
2024/03/11 05:27:24;;;;;;;;;;;;;;;2.73;100.00;95079.78;5064230;28;19937;-75
2024/03/11 05:29:50;;;;;;;;;;;;;;;2.72;100.00;95091.16;5063827;28;19975;-75
2024/03/11 05:32:16;;;;;;;;;;;;;;;2.68;100.00;95101.13;5064492;28;20097;-76
2024/03/11 05:34:42;;;;;;;;;;;;;;;2.68;100.00;95100.31;5063381;28;20005;-76
2024/03/11 05:37:07;;;;;;;;;;;;;;;2.67;100.00;95098.72;5079093;28;19939;-76
2024/03/11 05:39:34;;;;;;;;;;;;;;;2.66;100.00;95094.56;5062439;28;19961;-77
2024/03/11 05:42:00;;;;;;;;;;;;;;;2.66;100.00;95105.69;5063159;28;19940;-75
2024/03/11 05:44:25;;;;;;;;;;;;;;;2.63;100.00;95106.91;5064093;28;19971;-76
2024/03/11 05:46:51;;;;;;;;;;;;;;;2.63;100.00;95113.88;5063418;28;19942;-76
2024/03/11 05:49:17;;;;;;;;;;;;;;;2.63;100.00;95113.88;5064311;28;20109;-75
2024/03/11 05:51:43;;;;;;;;;;;;;;;2.62;100.00;95120.84;5063422;28;19933;-72
2024/03/11 05:54:17;;;;;;;;;;;;;;;2.63;100.00;95121.63;5063397;28;19955;-72
2024/03/11 05:56:56;;;;;;;;;;;;;;;2.63;100.00;95119.06;5063424;28;20098;-71
2024/03/11 05:59:23;;;;;;;;;;;;;;;2.61;100.00;95126.22;5063875;28;19946;-72
2024/03/11 06:01:49;;;;;;;;;;;;;;;2.60;100.00;95127.19;5063885;28;19942;-72
2024/03/11 06:04:15;;;;;;;;;;;;;;;2.61;100.00;95126.22;5063858;28;20139;-71
2024/03/11 06:06:45;;;;;;;;;;;;;;;2.62;100.00;95120.03;5063313;28;19932;-76
2024/03/11 06:09:14;;;;;;;;;;;;;;;2.64;100.00;95133.56;5063746;28;19952;-74
2024/03/11 06:11:44;;;;;;;;;;;;;;;2.67;100.00;95135.78;5063481;28;19960;-73
2024/03/11 06:14:12;;;;;;;;;;;;;;;2.69;100.00;95138.13;5063272;28;20255;-74
2024/03/11 06:16:42;;;;;;;;;;;;;;;2.78;100.00;95144.72;5063734;28;19940;-74
2024/03/11 06:19:09;;;;;;;;;;;;;;;3.28;100.00;95145.03;5065135;28;19955;-74
2024/03/11 06:21:35;;;;;;;;;;;;;;;4.05;100.00;95139.88;5066825;28;19933;-74
2024/03/11 06:24:01;;;;;;;;;;;;;;;4.78;100.00;95122.97;5066769;28;19951;-71
2024/03/11 06:26:27;;;;;;;;;;;;;;;5.47;100.00;95114.03;5067075;28;19945;-77
2024/03/11 06:28:53;;;;;;;;;;;;;;;6.14;100.00;95107.22;5065685;28;19930;-76
2024/03/11 06:31:20;;;;;;;;;;;;;;;6.77;100.00;95098.78;5065558;28;19950;-76
2024/03/11 06:33:47;;;;;;;;;;;;;;;7.38;100.00;95083.66;5066378;28;19961;-75
2024/03/11 06:36:16;;;;;;;;;;;;;;;7.97;100.00;95067.75;5067156;28;19960;-74
2024/03/11 06:38:43;;;;;;;;;;;;;;;8.43;100.00;95044.25;5066433;28;19951;-75
2024/03/11 06:41:10;;;;;;;;;;;;;;;8.68;100.00;95042.00;5066517;28;19935;-74
2024/03/11 06:43:35;;;;;;;;;;;;;;;8.92;100.00;95044.41;5066985;28;20009;-67
2024/03/11 06:46:01;;;;;;;;;;;;;;;9.21;100.00;95024.09;5066683;28;19942;-75
2024/03/11 06:48:27;;;;;;;;;;;;;;;9.21;100.00;95033.78;5066401;28;20245;-76
2024/03/11 06:50:53;;;;;;;;;;;;;;;9.26;100.00;95032.03;5067135;28;19937;-75
2024/03/11 06:53:19;;;;;;;;;;;;;;;9.24;100.00;95026.25;5066263;28;19941;-75
2024/03/11 06:55:45;;;;;;;;;;;;;;;8.98;100.00;95047.88;5066215;28;19955;-75
2024/03/11 06:58:11;;;;;;;;;;;;;;;8.34;100.00;95057.66;5066880;28;19963;-75
2024/03/11 07:00:37;;;;;;;;;;;;;;;7.61;100.00;95089.81;5066112;28;19940;-74
2024/03/11 07:03:03;;;;;;;;;;;;;;;6.84;100.00;95129.94;5066140;28;19970;-66
2024/03/11 07:05:29;;;;;;;;;;;;;;;6.28;100.00;95155.47;5066057;28;19936;-71
2024/03/11 07:07:55;;;;;;;;;;;;;;;5.81;100.00;95165.66;5066735;28;20131;-71
2024/03/11 07:10:21;;;;;;;;;;;;;;;5.45;100.00;95183.66;5065965;28;20126;-71
2024/03/11 07:12:47;;;;;;;;;;;;;;;5.21;100.00;95195.72;5065885;28;19931;-71
2024/03/11 07:15:13;;;;;;;;;;;;;;;5.06;100.00;95198.66;5066667;28;19928;-71
2024/03/11 07:17:40;;;;;;;;;;;;;;;4.99;100.00;95207.50;5065772;28;19934;-71
2024/03/11 07:20:13;;;;;;;;;;;;;;;5.02;100.00;95213.06;5065647;28;19958;-68
2024/03/11 07:22:39;;;;;;;;;;;;;;;5.57;100.00;95207.16;5065745;28;19935;-71
2024/03/11 07:25:15;;;;;;;;;;;;;;;6.27;100.00;95204.13;5065686;28;19934;-71
2024/03/11 07:27:42;;;;;;;;;;;;;;;6.90;100.00;95186.38;5065638;28;19934;-71
2024/03/11 07:30:09;;;;;;;;;;;;;;;7.41;100.00;95179.69;5065250;28;19946;-72
2024/03/11 07:32:35;;;;;;;;;;;;;;;7.87;100.00;95166.75;5066288;28;19936;-71
2024/03/11 07:35:02;;;;;;;;;;;;;;;8.29;100.00;95159.47;5065322;28;20290;-71
2024/03/11 07:37:28;;;;;;;;;;;;;;;8.66;100.00;95160.88;5065421;28;19948;-72
2024/03/11 07:39:54;;;;;;;;;;;;;;;8.84;100.00;95123.22;5065403;28;20252;-74
2024/03/11 07:42:24;;;;;;;;;;;;;;;8.83;100.00;95113.81;5064959;28;19939;-71
2024/03/11 07:44:49;;;;;;;;;;;;;;;8.96;100.00;95131.78;5065282;28;19925;-72
2024/03/11 07:47:15;;;;;;;;;;;;;;;9.24;100.00;95143.13;5065242;28;19939;-71
2024/03/11 07:49:42;;;;;;;;;;;;;;;9.18;100.00;95078.75;5065198;28;19940;-71
2024/03/11 07:52:09;;;;;;;;;;;;;;;9.07;100.00;95110.00;5064021;28;19954;-71
2024/03/11 07:54:35;;;;;;;;;;;;;;;9.19;100.00;95128.19;5065080;28;20129;-71
2024/03/11 07:57:01;;;;;;;;;;;;;;;9.34;100.00;95132.81;5065573;28;19972;-74
2024/03/11 07:59:27;;;;;;;;;;;;;;;9.46;100.00;95135.34;5065008;28;20251;-74
2024/03/11 08:01:53;;;;;;;;;;;;;;;9.70;100.00;95141.09;5065441;28;19943;-73
2024/03/11 08:04:18;;;;;;;;;;;;;;;9.91;100.00;95149.97;5064954;28;19927;-72
2024/03/11 08:06:45;;;;;;;;;;;;;;;9.93;100.00;95106.00;5064852;28;19929;-73
2024/03/11 08:09:10;;;;;;;;;;;;;;;10.03;100.00;95121.84;5065074;28;19954;-73
2024/03/11 08:11:36;;;;;;;;;;;;;;;9.94;100.00;95139.81;5064781;28;19937;-74
2024/03/11 08:14:04;;;;;;;;;;;;;;;9.83;100.00;95130.28;5064707;28;20219;-73
2024/03/11 08:16:29;;;;;;;;;;;;;;;9.87;100.00;95134.00;5065272;28;19932;-67
2024/03/11 08:18:55;;;;;;;;;;;;;;;10.13;100.00;95118.53;5063269;28;19961;-73
2024/03/11 08:21:21;;;;;;;;;;;;;;;10.44;100.00;95158.16;5064608;28;19948;-73
2024/03/11 08:23:47;;;;;;;;;;;;;;;10.61;97.10;95105.63;5064532;28;19929;-75
2024/03/11 08:26:16;;;;;;;;;;;;;;;10.61;100.00;95148.34;5064485;28;19933;-73
2024/03/11 08:28:42;;;;;;;;;;;;;;;10.53;97.24;95126.00;5064908;28;20125;-73
2024/03/11 08:31:07;;;;;;;;;;;;;;;10.50;100.00;95131.75;5065197;28;19999;-74
2024/03/11 08:33:34;;;;;;;;;;;;;;;10.61;100.00;95142.31;5064273;28;19966;-74
2024/03/11 08:36:04;;;;;;;;;;;;;;;10.78;97.26;95135.09;5064997;28;19935;-76
2024/03/11 08:38:31;;;;;;;;;;;;;;;10.95;98.43;95137.59;5064251;28;19959;-76
2024/03/11 08:40:58;;;;;;;;;;;;;;;11.13;98.80;95146.91;5064016;28;19938;-76
2024/03/11 08:43:24;;;;;;;;;;;;;;;10.88;94.28;95119.44;5063940;28;20241;-76
2024/03/11 08:45:50;;;;;;;;;;;;;;;10.84;94.61;95128.88;5064242;28;19941;-77
2024/03/11 08:48:16;;;;;;;;;;;;;;;10.93;98.68;95148.31;5064224;28;20009;-76
2024/03/11 08:50:42;;;;;;;;;;;;;;;11.04;96.71;95143.94;5064173;28;19946;-77
2024/03/11 08:53:08;;;;;;;;;;;;;;;11.17;99.01;95159.25;5064189;28;20134;-71
2024/03/11 08:55:35;;;;;;;;;;;;;;;11.33;93.05;95128.63;5064131;28;19979;-73
2024/03/11 08:58:01;;;;;;;;;;;;;;;11.45;97.63;95165.19;5062999;28;19945;-73
2024/03/11 09:00:30;;;;;;;;;;;;;;;11.45;93.76;95140.78;5064758;28;19974;-73
2024/03/11 09:02:56;;;;;;;;;;;;;;;11.34;92.04;95139.94;5063954;28;19940;-73
2024/03/11 09:05:22;;;;;;;;;;;;;;;11.52;98.67;95178.84;5063915;28;19937;-73
2024/03/11 09:07:50;;;;;;;;;;;;;;;11.57;92.44;95154.50;5064366;28;20252;-73
2024/03/11 09:10:17;;;;;;;;;;;;;;;11.71;92.83;95152.16;5063911;28;19941;-71
2024/03/11 09:12:44;;;;;;;;;;;;;;;11.88;93.68;95144.09;5062671;28;20247;-67
2024/03/11 09:15:16;;;;;;;;;;;;;;;11.76;88.80;95131.19;5063853;28;20001;-67
2024/03/11 09:17:43;;;;;;;;;;;;;;;11.86;93.46;95159.31;5064643;28;19944;-67
2024/03/11 09:20:16;;;;;;;;;;;;;;;11.90;92.25;95155.94;5064282;28;19952;-67
2024/03/11 09:22:49;;;;;;;;;;;;;;;11.92;92.50;95161.72;5064010;28;19932;-67
2024/03/11 09:25:17;;;;;;;;;;;;;;;11.93;89.18;95158.06;5063808;28;19956;-67
2024/03/11 09:27:44;;;;;;;;;;;;;;;11.90;95.21;95182.22;5063663;28;19946;-67
2024/03/11 09:30:11;;;;;;;;;;;;;;;12.17;92.41;95168.91;5063760;28;19933;-69
2024/03/11 09:32:37;;;;;;;;;;;;;;;12.51;87.59;95139.50;5063662;28;19943;-76
2024/03/11 09:35:05;;;;;;;;;;;;;;;12.49;79.89;95088.25;5062427;28;19974;-74
2024/03/11 09:37:31;;;;;;;;;;;;;;;12.43;88.57;95149.75;5063912;28;20130;-74
2024/03/11 09:39:57;;;;;;;;;;;;;;;12.43;87.80;95144.50;5063504;28;19960;-74
2024/03/11 09:42:27;;;;;;;;;;;;;;;12.53;82.06;95116.38;5063670;28;19935;-74
2024/03/11 09:44:56;;;;;;;;;;;;;;;12.73;87.15;95152.44;5063880;28;19945;-74
2024/03/11 09:47:22;;;;;;;;;;;;;;;12.89;85.77;95136.63;5063566;28;19942;-71
2024/03/11 09:49:49;;;;;;;;;;;;;;;12.99;88.41;95155.84;5063594;28;20120;-76
2024/03/11 09:52:17;;;;;;;;;;;;;;;13.18;85.71;95150.81;5063398;28;19939;-76
2024/03/11 09:54:44;;;;;;;;;;;;;;;13.17;81.19;95115.03;5067236;28;19930;-76
2024/03/11 09:57:12;;;;;;;;;;;;;;;13.30;83.73;95153.19;5067285;28;20107;-75
2024/03/11 09:59:41;;;;;;;;;;;;;;;13.51;86.15;95156.56;5067176;28;19960;-76
2024/03/11 10:02:12;;;;;;;;;;;;;;;13.73;83.85;95160.72;5067213;28;19940;-75
2024/03/11 10:04:38;;;;;;;;;;;;;;;13.91;81.01;95219.94;5067693;28;19952;-76
2024/03/11 10:07:08;;;;;;;;;;;;;;;13.86;79.05;95236.56;5066021;28;19967;-68
2024/03/11 10:09:44;;;;;;;;;;;;;;;13.95;77.07;95234.16;5067004;28;20272;-75
2024/03/11 10:12:11;;;;;;;;;;;;;;;14.20;85.31;95254.38;5067613;28;19939;-75
2024/03/11 10:14:38;;;;;;;;;;;;;;;14.31;80.99;95255.13;5067039;28;19931;-75
2024/03/11 10:17:26;;;;;;;;;;;;;;;14.23;83.48;95259.09;5067167;28;19934;-75
2024/03/11 10:19:58;;;;;;;;;;;;;;;14.33;81.63;95255.66;5066333;28;20248;-76
2024/03/11 10:22:26;;;;;;;;;;;;;;;14.44;81.37;95248.47;5066996;28;20127;-76
2024/03/11 10:24:54;;;;;;;;;;;;;;;14.39;79.40;95244.00;5066839;28;19932;-67
2024/03/11 10:27:21;;;;;;;;;;;;;;;14.15;83.42;95259.66;5066791;28;20120;-67
2024/03/11 10:29:49;;;;;;;;;;;;;;;13.86;78.52;95243.66;5066744;28;19932;-67
2024/03/11 10:32:36;;;;;;;;;;;;;;;13.72;82.67;95262.69;5066626;28;19935;-67
2024/03/11 10:35:03;;;;;;;;;;;;;;;13.85;79.41;95256.06;5066627;28;19968;-67
2024/03/11 10:37:29;;;;;;;;;;;;;;;14.11;80.36;95259.44;5067137;28;19942;-67
2024/03/11 10:40:00;;;;;;;;;;;;;;;14.40;79.17;95253.50;5067254;28;19952;-67
2024/03/11 10:42:32;;;;;;;;;;;;;;;14.37;75.74;95264.59;5066220;28;20241;-69
2024/03/11 10:44:58;;;;;;;;;;;;;;;14.37;77.96;95277.78;5066545;28;19926;-76
2024/03/11 10:47:24;;;;;;;;;;;;;;;14.38;74.35;95274.88;5067262;28;19937;-75
2024/03/11 10:49:58;;;;;;;;;;;;;;;14.58;78.74;95287.19;5066695;28;20003;-76
2024/03/11 10:52:25;;;;;;;;;;;;;;;14.52;76.97;95287.47;5066907;28;19945;-76
2024/03/11 10:54:54;;;;;;;;;;;;;;;14.42;72.79;95280.38;5066558;28;19930;-76
2024/03/11 10:57:26;;;;;;;;;;;;;;;14.45;73.09;95276.41;5066611;28;20120;-76
2024/03/11 10:59:53;;;;;;;;;;;;;;;14.70;74.17;95280.81;5066181;28;19948;-75
2024/03/11 11:02:22;;;;;;;;;;;;;;;15.09;75.47;95280.06;5066207;28;19960;-72
2024/03/11 11:04:52;;;;;;;;;;;;;;;15.33;69.84;95270.38;5065581;28;19931;-66
2024/03/11 11:07:22;;;;;;;;;;;;;;;15.38;68.67;95272.97;5066098;28;19942;-66
2024/03/11 11:10:01;;;;;;;;;;;;;;;15.46;65.51;95278.72;5066541;28;20024;-66
2024/03/11 11:12:29;;;;;;;;;;;;;;;15.51;64.28;95284.75;5066006;28;19938;-66
2024/03/11 11:15:00;;;;;;;;;;;;;;;15.49;62.44;95284.22;5065897;28;20325;-66
2024/03/11 11:17:29;;;;;;;;;;;;;;;15.38;71.60;95298.59;5066417;28;20001;-67
2024/03/11 11:19:56;;;;;;;;;;;;;;;15.32;57.55;95283.84;5065785;28;19958;-70
2024/03/11 11:22:25;;;;;;;;;;;;;;;14.97;57.47;95310.22;5065869;28;19939;-72
2024/03/11 11:24:51;;;;;;;;;;;;;;;14.71;64.36;95329.91;5065762;28;19938;-72
2024/03/11 11:27:23;;;;;;;;;;;;;;;14.44;66.98;95325.75;5066527;28;19969;-72
2024/03/11 11:29:52;;;;;;;;;;;;;;;14.43;67.32;95328.66;5066409;28;20091;-73
2024/03/11 11:32:18;;;;;;;;;;;;;;;14.92;69.23;95325.31;5065604;28;19939;-72
2024/03/11 11:34:44;;;;;;;;;;;;;;;15.34;69.26;95318.69;5065538;28;20016;-72
2024/03/11 11:37:22;;;;;;;;;;;;;;;15.61;67.22;95318.22;5065539;28;19938;-72
2024/03/11 11:39:50;;;;;;;;;;;;;;;15.26;56.71;95319.28;5065347;28;20015;-74
2024/03/11 11:42:34;;;;;;;;;;;;;;;14.90;66.13;95333.50;5064303;28;20240;-67
2024/03/11 11:44:59;;;;;;;;;;;;;;;14.70;65.75;95330.94;5065264;28;20126;-67
2024/03/11 11:47:27;;;;;;;;;;;;;;;14.59;66.42;95332.84;5065322;28;19963;-67
2024/03/11 11:49:54;;;;;;;;;;;;;;;14.45;69.28;95335.25;5065199;28;19943;-67
2024/03/11 11:52:20;;;;;;;;;;;;;;;14.39;64.83;95333.69;5065813;28;20252;-66
2024/03/11 11:54:47;;;;;;;;;;;;;;;14.46;69.66;95341.31;5065948;28;19934;-66
2024/03/11 11:57:21;;;;;;;;;;;;;;;14.51;66.16;95339.44;5065142;28;19947;-67
2024/03/11 11:59:55;;;;;;;;;;;;;;;14.60;64.74;95329.16;5065415;28;19956;-71
2024/03/11 12:02:25;;;;;;;;;;;;;;;14.89;64.73;95331.91;5065898;28;20172;-71
2024/03/11 12:04:55;;;;;;;;;;;;;;;15.14;60.39;95324.91;5064884;28;19933;-70
2024/03/11 12:07:25;;;;;;;;;;;;;;;15.31;60.64;95329.84;5064174;28;19943;-71
2024/03/11 12:10:03;;;;;;;;;;;;;;;15.18;61.45;95329.38;5064780;28;19953;-71
2024/03/11 12:12:30;;;;;;;;;;;;;;;14.87;60.85;95334.03;5065406;28;20082;-71
2024/03/11 12:14:56;;;;;;;;;;;;;;;14.51;62.62;95343.91;5064806;28;19935;-75
2024/03/11 12:17:25;;;;;;;;;;;;;;;14.27;62.08;95339.25;5063776;28;19944;-71
2024/03/11 12:22:42;;;;;;;;;;;;;;;14.00;60.79;95343.00;5065384;28;19934;-72
2024/03/11 12:25:13;;;;;;;;;;;;;;;13.95;66.92;95344.88;5064568;28;19936;-71
2024/03/11 12:27:40;;;;;;;;;;;;;;;13.96;68.56;95335.88;5065243;28;19939;-71
2024/03/11 12:30:09;;;;;;;;;;;;;;;13.97;68.99;95338.25;5064035;28;19946;-71
2024/03/11 12:32:39;;;;;;;;;;;;;;;13.91;67.64;95347.22;5064964;28;19941;-71
2024/03/11 12:35:12;;;;;;;;;;;;;;;13.84;68.85;95349.34;5064180;28;19965;-76
2024/03/11 12:37:39;;;;;;;;;;;;;;;13.80;60.69;95338.56;5064590;28;19940;-76
2024/03/11 12:40:18;;;;;;;;;;;;;;;13.71;65.49;95345.41;5065091;28;19963;-76
2024/03/11 12:42:52;;;;;;;;;;;;;;;13.58;60.82;95351.19;5064235;28;19939;-77
2024/03/11 12:45:37;;;;;;;;;;;;;;;13.50;74.86;95357.00;5064220;28;20121;-82
2024/03/11 12:48:06;;;;;;;;;;;;;;;13.80;75.30;95358.84;5065048;28;19942;-76
2024/03/11 12:50:32;;;;;;;;;;;;;;;13.86;67.97;95360.44;5064137;28;20000;-74